Time;durP1;ratioP1;P1;durP2;ratioP2;P2;SDS_P1;SDS_P2;PMS_P1;PMS_P2;Temp;Humidity;BMP_temperature;BMP_pressure;BME280_temperature;BME280_humidity;BME280_pressure;Samples;Min_cycle;Max_cycle;Signal;HPM_P1;HPM_P2
2021/10/01 00:02:25;;;;;;;2.47;1.13;;;;;;;5.58;100.00;94524.56;5134257;27;20666;-77
2021/10/01 00:04:55;;;;;;;4.63;1.07;;;;;;;5.35;100.00;94539.75;5134219;27;20205;-78
2021/10/01 00:07:21;;;;;;;3.83;1.57;;;;;;;5.27;100.00;94529.31;5134127;27;20201;-75
2021/10/01 00:09:48;;;;;;;8.20;1.40;;;;;;;5.26;100.00;94525.94;5134350;27;20232;-77
2021/10/01 00:12:18;;;;;;;1.77;1.17;;;;;;;5.16;100.00;94528.59;5134033;27;20737;-77
2021/10/01 00:14:45;;;;;;;3.33;1.10;;;;;;;5.15;100.00;94516.59;5134040;27;20694;-77
2021/10/01 00:17:13;;;;;;;3.57;1.40;;;;;;;5.21;100.00;94515.19;5134006;27;20295;-77
2021/10/01 00:19:45;;;;;;;5.07;1.10;;;;;;;5.45;100.00;94512.00;5133915;27;20816;-77
2021/10/01 00:22:11;;;;;;;7.30;1.93;;;;;;;5.63;100.00;94505.94;5115711;27;20201;-76
2021/10/01 00:24:43;;;;;;;3.00;1.30;;;;;;;5.61;100.00;94500.91;5113223;28;20655;-78
2021/10/01 00:27:13;;;;;;;3.77;1.23;;;;;;;5.57;100.00;94509.97;5113078;28;20251;-78
2021/10/01 00:29:46;;;;;;;7.47;1.10;;;;;;;5.49;100.00;94510.72;5112770;28;20202;-77
2021/10/01 00:32:14;;;;;;;3.57;1.33;;;;;;;5.38;100.00;94495.44;5113281;28;20663;-77
2021/10/01 00:34:40;;;;;;;1.47;1.20;;;;;;;5.31;100.00;94503.00;5113052;28;20575;-77
2021/10/01 00:37:07;;;;;;;1.97;1.30;;;;;;;5.34;100.00;94496.69;5113164;28;20197;-77
2021/10/01 00:39:34;;;;;;;4.00;1.07;;;;;;;5.18;100.00;94500.78;5110665;28;20227;-77
2021/10/01 00:42:11;;;;;;;3.27;1.37;;;;;;;5.37;100.00;94494.59;5113074;28;20212;-77
2021/10/01 00:44:37;;;;;;;4.10;1.20;;;;;;;5.49;100.00;94494.38;5113251;28;20197;-78
2021/10/01 00:47:04;;;;;;;6.43;1.57;;;;;;;5.34;100.00;94494.09;5113110;28;20220;-77
2021/10/01 00:49:33;;;;;;;1.97;1.10;;;;;;;5.24;100.00;94493.38;5113008;28;20664;-77
2021/10/01 00:52:05;;;;;;;7.33;1.90;;;;;;;5.01;100.00;94499.00;5113264;28;20200;-77
2021/10/01 00:54:32;;;;;;;8.93;1.40;;;;;;;4.98;100.00;94494.16;5116453;28;20201;-78
2021/10/01 00:56:59;;;;;;;2.87;1.37;;;;;;;5.04;100.00;94485.78;5117253;28;20232;-77
2021/10/01 00:59:26;;;;;;;10.17;2.00;;;;;;;5.21;100.00;94480.72;5117339;28;20606;-77
2021/10/01 01:01:52;;;;;;;6.30;1.50;;;;;;;5.22;100.00;94474.59;5117037;28;20233;-78
2021/10/01 01:04:19;;;;;;;4.60;1.43;;;;;;;5.21;100.00;94478.16;5116914;28;20206;-77
2021/10/01 01:06:52;;;;;;;6.47;1.40;;;;;;;5.16;100.00;94471.66;5117148;28;20236;-77
2021/10/01 01:09:28;;;;;;;4.85;1.30;;;;;;;5.19;100.00;94476.50;5116498;28;20441;-77
2021/10/01 01:12:14;;;;;;;4.23;1.63;;;;;;;5.24;100.00;94470.88;5116917;28;20205;-78
2021/10/01 01:14:50;;;;;;;2.37;1.20;;;;;;;5.24;100.00;94457.13;5116698;28;20197;-77
2021/10/01 01:17:25;;;;;;;8.53;1.47;;;;;;;5.16;100.00;94461.31;5116678;28;20321;-77
2021/10/01 01:20:16;;;;;;;3.60;1.40;;;;;;;5.15;100.00;94464.03;5116886;28;20201;-77
2021/10/01 01:22:58;;;;;;;2.37;1.20;;;;;;;5.18;100.00;94455.97;5114239;27;20197;-78
2021/10/01 01:25:49;;;;;;;6.33;1.30;;;;;;;5.12;100.00;94454.78;5116779;28;20205;-77
2021/10/01 01:28:30;;;;;;;6.07;1.40;;;;;;;5.11;100.00;94442.81;5116547;28;20225;-77
2021/10/01 01:31:04;;;;;;;1.63;1.10;;;;;;;5.07;100.00;94445.84;5116632;28;20205;-77
2021/10/01 01:33:39;;;;;;;1.80;1.33;;;;;;;5.08;100.00;94445.72;5116387;28;20208;-77
2021/10/01 01:36:07;;;;;;;5.80;1.40;;;;;;;4.94;100.00;94446.22;5116620;28;20305;-78
2021/10/01 01:38:39;;;;;;;5.17;1.30;;;;;;;4.98;100.00;94443.19;5116410;28;20647;-77
2021/10/01 01:41:08;;;;;;;2.70;1.33;;;;;;;4.89;100.00;94438.09;5123801;27;20535;-78
2021/10/01 01:43:36;;;;;;;5.37;1.30;;;;;;;4.92;100.00;94423.09;5136823;27;20192;-78
2021/10/01 01:46:08;;;;;;;4.40;1.37;;;;;;;4.97;100.00;94433.00;5137051;27;20196;-78
2021/10/01 01:48:37;;;;;;;4.73;1.57;;;;;;;5.03;100.00;94422.06;5136952;27;20201;-77
2021/10/01 01:51:05;;;;;;;5.77;1.50;;;;;;;5.07;100.00;94422.56;5136989;27;20197;-78
2021/10/01 01:53:33;;;;;;;6.00;1.37;;;;;;;5.09;100.00;94413.69;5136749;27;20197;-77
2021/10/01 01:56:03;;;;;;;4.10;1.60;;;;;;;5.07;100.00;94414.81;5136635;27;20239;-77
2021/10/01 01:58:30;;;;;;;10.97;2.03;;;;;;;4.91;100.00;94410.31;5136452;27;20203;-77
2021/10/01 02:00:57;;;;;;;1.67;1.10;;;;;;;4.89;100.00;94407.06;5136696;27;20203;-77
2021/10/01 02:03:25;;;;;;;3.33;1.20;;;;;;;5.06;100.00;94406.22;5136361;27;20235;-77
2021/10/01 02:05:58;;;;;;;6.70;1.50;;;;;;;5.02;100.00;94412.66;5136297;27;20681;-77
2021/10/01 02:08:26;;;;;;;1.97;1.30;;;;;;;4.96;100.00;94402.91;5136625;27;20197;-78
2021/10/01 02:10:55;;;;;;;3.13;1.37;;;;;;;5.03;100.00;94409.13;5136164;27;20204;-78
2021/10/01 02:13:23;;;;;;;2.13;1.17;;;;;;;5.06;100.00;94395.84;5136358;27;20283;-77
2021/10/01 02:15:54;;;;;;;2.60;1.13;;;;;;;5.09;100.00;94387.78;5135950;27;20730;-77
2021/10/01 02:18:23;;;;;;;3.50;1.10;;;;;;;5.14;100.00;94389.94;5136509;27;20232;-76
2021/10/01 02:20:51;;;;;;;4.50;1.10;;;;;;;5.06;100.00;94392.47;5136135;27;20203;-77
2021/10/01 02:23:20;;;;;;;5.40;1.10;;;;;;;5.02;100.00;94386.78;5136104;27;20694;-76
2021/10/01 02:28:35;;;;;;;4.73;1.37;;;;;;;5.06;100.00;94387.28;5135905;27;20594;-77
2021/10/01 02:31:06;;;;;;;2.47;1.30;;;;;;;5.03;100.00;94378.06;5135900;27;20204;-77
2021/10/01 02:33:37;;;;;;;2.47;1.60;;;;;;;4.93;100.00;94383.34;5135913;27;20197;-77
2021/10/01 02:36:04;;;;;;;2.20;1.07;;;;;;;4.92;100.00;94371.34;5135709;27;20224;-77
2021/10/01 02:38:34;;;;;;;0.97;0.83;;;;;;;4.86;100.00;94371.13;5135872;27;20201;-77
2021/10/01 02:41:00;;;;;;;2.80;1.30;;;;;;;5.04;100.00;94369.31;5135858;27;20254;-76
2021/10/01 02:43:31;;;;;;;3.38;1.05;;;;;;;5.09;100.00;94369.69;5135619;27;20466;-76
2021/10/01 02:45:58;;;;;;;5.63;1.30;;;;;;;4.97;100.00;94361.34;5135654;27;20204;-77
2021/10/01 02:48:28;;;;;;;2.40;1.10;;;;;;;4.84;100.00;94358.34;5135375;27;20204;-77
2021/10/01 02:51:03;;;;;;;5.87;1.20;;;;;;;4.81;100.00;94362.06;5135524;27;20550;-77
2021/10/01 02:53:38;;;;;;;2.43;1.10;;;;;;;4.81;100.00;94358.66;5135422;27;20200;-76
2021/10/01 02:56:13;;;;;;;1.03;1.00;;;;;;;4.81;100.00;94356.91;5134172;27;20231;-77
2021/10/01 02:58:47;;;;;;;2.73;1.03;;;;;;;4.79;100.00;94360.59;5135590;27;20204;-77
2021/10/01 03:01:15;;;;;;;1.90;1.03;;;;;;;4.86;100.00;94355.63;5135182;27;20232;-77
2021/10/01 03:03:50;;;;;;;2.20;1.30;;;;;;;4.88;100.00;94358.84;5135339;27;20286;-77
2021/10/01 03:06:19;;;;;;;2.93;1.00;;;;;;;4.84;100.00;94352.38;5135305;27;20239;-77
2021/10/01 03:08:50;;;;;;;3.67;1.10;;;;;;;4.88;100.00;94353.69;5135172;27;20571;-77
2021/10/01 03:11:20;;;;;;;3.93;1.20;;;;;;;4.92;100.00;94352.44;5135087;27;20285;-77
2021/10/01 03:13:49;;;;;;;3.90;1.33;;;;;;;4.98;100.00;94338.91;5135260;27;20563;-77
2021/10/01 03:16:20;;;;;;;3.10;1.23;;;;;;;4.99;100.00;94340.50;5134119;27;20229;-77
2021/10/01 03:18:48;;;;;;;4.40;1.10;;;;;;;5.10;100.00;94340.25;5135065;27;20223;-77
2021/10/01 03:21:18;;;;;;;6.43;1.20;;;;;;;4.95;100.00;94339.22;5134960;27;20291;-77
2021/10/01 03:23:49;;;;;;;5.20;1.17;;;;;;;4.81;100.00;94343.97;5134831;27;20291;-76
2021/10/01 03:26:20;;;;;;;3.33;1.07;;;;;;;4.97;100.00;94337.28;5134930;27;20197;-77
2021/10/01 03:28:50;;;;;;;2.63;1.03;;;;;;;5.10;100.00;94331.69;5134848;27;20199;-76
2021/10/01 03:31:16;;;;;;;2.97;1.03;;;;;;;5.04;100.00;94330.50;5135124;27;20193;-77
2021/10/01 03:33:47;;;;;;;5.47;1.20;;;;;;;5.00;100.00;94339.56;5134049;27;20437;-77
2021/10/01 03:36:17;;;;;;;4.37;1.13;;;;;;;5.12;100.00;94327.97;5134520;27;20220;-77
2021/10/01 03:38:53;;;;;;;6.67;1.37;;;;;;;5.14;100.00;94333.00;5134599;27;20287;-76
2021/10/01 03:41:20;;;;;;;6.67;1.30;;;;;;;5.17;100.00;94333.50;5134768;27;20200;-76
2021/10/01 03:43:47;;;;;;;6.20;1.10;;;;;;;4.99;100.00;94325.78;5134643;27;20562;-77
2021/10/01 03:46:15;;;;;;;7.23;2.50;;;;;;;4.87;100.00;94333.97;5130959;27;20300;-77
2021/10/01 03:48:44;;;;;;;1.50;1.03;;;;;;;4.84;100.00;94331.69;5134290;27;20201;-77
2021/10/01 03:51:11;;;;;;;6.13;1.23;;;;;;;4.84;100.00;94337.66;5134290;27;20205;-76
2021/10/01 03:53:40;;;;;;;9.10;1.20;;;;;;;4.85;100.00;94330.72;5134422;27;20236;-77
2021/10/01 03:56:15;;;;;;;3.67;1.37;;;;;;;4.84;100.00;94324.72;5134200;27;20311;-77
2021/10/01 03:58:44;;;;;;;4.80;1.20;;;;;;;4.91;100.00;94337.88;5134394;27;20200;-76
2021/10/01 04:01:11;;;;;;;3.83;1.30;;;;;;;4.81;100.00;94332.78;5134044;27;20595;-76
2021/10/01 04:03:38;;;;;;;2.30;1.23;;;;;;;4.79;100.00;94338.09;5134376;27;20590;-77
2021/10/01 04:06:05;;;;;;;6.50;1.70;;;;;;;4.79;100.00;94325.19;5134309;27;20196;-77
2021/10/01 04:08:36;;;;;;;12.67;1.80;;;;;;;4.79;100.00;94327.75;5134320;27;20197;-77
2021/10/01 04:11:05;;;;;;;3.67;1.33;;;;;;;4.86;100.00;94319.41;5134066;27;20204;-77
2021/10/01 04:13:35;;;;;;;2.90;1.37;;;;;;;4.98;100.00;94328.56;5134113;27;20676;-76
2021/10/01 04:16:03;;;;;;;4.30;1.37;;;;;;;5.29;100.00;94315.13;5134074;27;20232;-77
2021/10/01 04:18:31;;;;;;;1.70;1.10;;;;;;;5.30;100.00;94316.75;5134131;27;20224;-77
2021/10/01 04:21:00;;;;;;;4.33;1.43;;;;;;;5.28;100.00;94323.84;5133553;27;20205;-77
2021/10/01 04:23:27;;;;;;;3.87;1.37;;;;;;;5.26;100.00;94315.44;5134004;27;20291;-77
2021/10/01 04:25:57;;;;;;;5.93;1.43;;;;;;;5.22;100.00;94319.31;5133355;27;20205;-77
2021/10/01 04:28:24;;;;;;;4.13;1.10;;;;;;;5.35;100.00;94315.31;5133377;27;20271;-76
2021/10/01 04:31:03;;;;;;;3.00;1.40;;;;;;;5.25;100.00;94311.22;5133935;28;20201;-77
2021/10/01 04:33:35;;;;;;;3.23;1.50;;;;;;;5.13;100.00;94311.50;5133810;28;20207;-77
2021/10/01 04:36:07;;;;;;;2.90;1.30;;;;;;;5.11;100.00;94312.59;5133727;28;20277;-77
2021/10/01 04:38:34;;;;;;;3.40;1.20;;;;;;;5.08;100.00;94313.72;5133847;27;20222;-76
2021/10/01 04:41:02;;;;;;;5.63;1.60;;;;;;;5.05;100.00;94315.81;5133799;28;20224;-77
2021/10/01 04:43:28;;;;;;;6.03;1.40;;;;;;;5.05;100.00;94314.03;5133599;27;20296;-77
2021/10/01 04:45:57;;;;;;;8.13;1.57;;;;;;;5.06;100.00;94312.25;5133990;27;20204;-77
2021/10/01 04:48:23;;;;;;;5.83;1.30;;;;;;;5.35;100.00;94306.75;5133738;28;20303;-77
2021/10/01 04:50:50;;;;;;;4.53;1.20;;;;;;;5.30;100.00;94306.41;5133644;28;20200;-77
2021/10/01 04:53:18;;;;;;;4.77;1.70;;;;;;;5.41;100.00;94303.50;5133625;28;20200;-77
2021/10/01 04:55:46;;;;;;;3.73;1.43;;;;;;;5.53;100.00;94309.25;5133518;28;20200;-77
2021/10/01 04:58:18;;;;;;;6.80;1.47;;;;;;;5.30;100.00;94309.00;5133695;28;20207;-77
2021/10/01 05:00:46;;;;;;;2.00;1.07;;;;;;;5.24;100.00;94305.22;5133527;28;20651;-77
2021/10/01 05:03:15;;;;;;;3.70;1.30;;;;;;;5.18;100.00;94309.25;5133417;28;20558;-77
2021/10/01 05:05:44;;;;;;;4.03;1.40;;;;;;;4.95;100.00;94303.78;5133623;28;20247;-77
2021/10/01 05:08:13;;;;;;;6.03;1.30;;;;;;;4.99;100.00;94302.50;5133554;28;20201;-77
2021/10/01 05:10:40;;;;;;;2.20;1.50;;;;;;;5.07;100.00;94299.16;5133724;28;20224;-77
2021/10/01 05:13:12;;;;;;;4.27;1.40;;;;;;;5.14;100.00;94296.75;5132469;28;20852;-77
2021/10/01 05:15:43;;;;;;;4.63;1.20;;;;;;;5.23;100.00;94300.19;5133597;28;20596;-78
2021/10/01 05:18:16;;;;;;;1.80;1.20;;;;;;;5.17;100.00;94293.88;5133364;28;20256;-77
2021/10/01 05:20:43;;;;;;;2.13;1.20;;;;;;;5.35;100.00;94293.81;5133362;28;20201;-76
2021/10/01 05:23:09;;;;;;;1.73;1.33;;;;;;;5.40;100.00;94293.34;5133668;28;20196;-77
2021/10/01 05:25:39;;;;;;;3.70;1.40;;;;;;;5.54;100.00;94296.13;5133462;28;20313;-77
2021/10/01 05:28:06;;;;;;;4.27;1.30;;;;;;;5.53;100.00;94294.50;5132616;28;20228;-76
2021/10/01 05:30:34;;;;;;;8.23;1.10;;;;;;;5.55;100.00;94300.34;5133396;28;20285;-77
2021/10/01 05:33:06;;;;;;;1.97;1.00;;;;;;;5.49;100.00;94298.38;5133138;28;20295;-77
2021/10/01 05:35:37;;;;;;;4.07;1.20;;;;;;;5.39;100.00;94300.28;5133321;28;20200;-77
2021/10/01 05:38:07;;;;;;;1.63;1.20;;;;;;;5.46;100.00;94303.06;5133237;27;20578;-76
2021/10/01 05:40:35;;;;;;;3.93;1.30;;;;;;;5.41;100.00;94297.53;5136474;27;20203;-76
2021/10/01 05:43:04;;;;;;;7.80;1.63;;;;;;;5.29;100.00;94302.19;5136841;27;20558;-76
2021/10/01 05:45:34;;;;;;;2.53;1.70;;;;;;;5.28;100.00;94300.53;5136780;27;20204;-77
2021/10/01 05:48:04;;;;;;;3.70;1.50;;;;;;;5.25;100.00;94303.47;5136789;27;20671;-77
2021/10/01 05:50:33;;;;;;;6.50;1.83;;;;;;;5.23;100.00;94300.19;5136867;27;20196;-76
2021/10/01 05:53:24;;;;;;;3.37;1.33;;;;;;;5.22;100.00;94306.34;5136703;27;20204;-76
2021/10/01 05:55:51;;;;;;;3.77;1.23;;;;;;;5.30;100.00;94296.84;5133017;27;20274;-77
2021/10/01 05:58:19;;;;;;;9.07;1.37;;;;;;;5.40;100.00;94301.09;5136800;27;20224;-77
2021/10/01 06:00:47;;;;;;;1.83;1.10;;;;;;;5.44;100.00;94295.44;5136629;27;20555;-77
2021/10/01 06:03:16;;;;;;;2.53;1.27;;;;;;;5.35;100.00;94288.63;5136798;27;20196;-77
2021/10/01 06:05:45;;;;;;;4.57;1.23;;;;;;;5.51;100.00;94296.47;5136624;27;20200;-76
2021/10/01 06:08:14;;;;;;;2.30;1.20;;;;;;;5.49;100.00;94288.00;5136536;27;20578;-76
2021/10/01 06:10:40;;;;;;;3.40;1.40;;;;;;;5.48;100.00;94285.56;5136193;27;20196;-76
2021/10/01 06:13:07;;;;;;;4.57;1.60;;;;;;;5.50;100.00;94288.84;5136529;27;20197;-77
2021/10/01 06:15:35;;;;;;;4.53;1.27;;;;;;;5.45;100.00;94289.31;5136519;27;20192;-76
2021/10/01 06:18:01;;;;;;;2.23;1.30;;;;;;;5.51;100.00;94282.69;5136171;27;20315;-76
2021/10/01 06:20:28;;;;;;;5.37;1.30;;;;;;;5.47;100.00;94287.38;5136216;27;20220;-76
2021/10/01 06:22:54;;;;;;;2.90;1.67;;;;;;;5.58;100.00;94291.47;5136037;27;20567;-76
2021/10/01 06:25:23;;;;;;;6.13;1.33;;;;;;;5.72;100.00;94283.06;5136261;27;20203;-77
2021/10/01 06:27:50;;;;;;;1.20;1.10;;;;;;;5.82;100.00;94290.72;5135818;27;20612;-77
2021/10/01 06:30:20;;;;;;;3.93;1.20;;;;;;;5.88;100.00;94289.28;5136094;27;20702;-77
2021/10/01 06:32:49;;;;;;;5.27;1.13;;;;;;;5.84;100.00;94283.59;5135954;27;20196;-76
2021/10/01 06:35:16;;;;;;;8.67;1.40;;;;;;;5.96;100.00;94286.72;5136073;27;20208;-76
2021/10/01 06:37:42;;;;;;;2.20;0.93;;;;;;;5.98;100.00;94282.19;5135807;27;20309;-77
2021/10/01 06:40:11;;;;;;;5.10;1.33;;;;;;;6.08;100.00;94282.88;5135920;27;20204;-76
2021/10/01 06:42:47;;;;;;;2.83;1.20;;;;;;;6.04;100.00;94288.53;5135942;27;20200;-76
2021/10/01 06:45:17;;;;;;;2.83;1.33;;;;;;;6.17;100.00;94288.06;5135780;27;20196;-76
2021/10/01 06:47:48;;;;;;;3.13;1.27;;;;;;;6.38;100.00;94279.78;5135811;27;20228;-76
2021/10/01 07:38:54;;;;;;;1.20;0.90;;;;;;;9.21;100.00;94284.88;5134672;27;20571;-77
2021/10/01 08:18:28;;;;;;;1.67;0.80;;;;;;;11.84;100.00;94274.78;5113455;28;20236;-80
2021/10/01 08:20:56;;;;;;;4.43;0.73;;;;;;;11.94;100.00;94263.94;5113310;28;20229;-77
2021/10/01 08:23:23;;;;;;;10.23;3.87;;;;;;;12.01;100.00;94270.81;5113529;28;20198;-76
2021/10/01 08:25:49;;;;;;;8.53;3.57;;;;;;;12.03;100.00;94268.00;5113196;28;20660;-76
2021/10/01 08:28:16;;;;;;;8.20;2.70;;;;;;;12.10;100.00;94263.59;5113129;28;20229;-76
2021/10/01 08:30:42;;;;;;;4.53;0.83;;;;;;;12.20;100.00;94256.16;5113482;28;20204;-76
2021/10/01 08:33:09;;;;;;;1.17;0.75;;;;;;;12.37;100.00;94261.03;5113278;28;20223;-76
2021/10/01 08:35:36;;;;;;;1.58;0.70;;;;;;;12.45;98.73;94255.59;5113542;28;20205;-75
2021/10/01 08:38:04;;;;;;;2.30;0.88;;;;;;;12.52;96.86;94256.44;5113109;28;20664;-76
2021/10/01 08:40:32;;;;;;;3.40;0.95;;;;;;;12.66;97.22;94246.75;5112986;28;20209;-76
2021/10/01 08:42:58;;;;;;;7.53;1.02;;;;;;;12.83;100.00;94247.16;5113475;28;20198;-76
2021/10/01 08:45:27;;;;;;;4.85;1.00;;;;;;;12.88;91.96;94246.56;5113181;28;20236;-76
2021/10/01 08:47:57;;;;;;;2.28;0.82;;;;;;;12.90;92.03;94240.09;5113241;28;20193;-76
2021/10/01 08:50:25;;;;;;;4.43;0.90;;;;;;;13.08;91.36;94249.16;5113271;28;20197;-76
2021/10/01 08:52:59;;;;;;;4.68;0.80;;;;;;;13.20;90.20;94246.72;5112967;28;20224;-76
2021/10/01 08:55:39;;;;;;;3.65;1.00;;;;;;;13.27;93.94;94237.00;5113509;28;20251;-76
2021/10/01 08:58:08;;;;;;;3.75;0.90;;;;;;;13.42;99.79;94244.66;5113150;28;20260;-76
2021/10/01 09:00:35;;;;;;;2.03;0.75;;;;;;;13.51;98.83;94239.00;5112888;28;20205;-76
2021/10/01 09:03:02;;;;;;;2.13;0.90;;;;;;;13.60;93.20;94239.56;5112695;28;20205;-76
2021/10/01 09:05:28;;;;;;;2.28;0.73;;;;;;;13.77;92.70;94241.72;5112857;28;20225;-75
2021/10/01 09:07:55;;;;;;;1.35;0.73;;;;;;;13.90;90.63;94230.38;5113135;28;20202;-76
2021/10/01 09:10:21;;;;;;;1.30;0.82;;;;;;;13.97;86.31;94231.94;5112881;28;20198;-76
2021/10/01 09:12:54;;;;;;;3.60;0.80;;;;;;;14.19;89.89;94223.75;5112983;28;20205;-76
2021/10/01 09:15:21;;;;;;;4.43;1.27;;;;;;;14.15;87.96;94227.81;5115978;28;20229;-75
2021/10/01 09:17:51;;;;;;;2.65;0.90;;;;;;;14.20;87.78;94220.88;5116722;28;20225;-77
2021/10/01 09:20:18;;;;;;;2.15;0.73;;;;;;;14.20;88.07;94227.97;5116812;28;20201;-76
2021/10/01 09:22:46;;;;;;;5.00;0.80;;;;;;;14.32;87.46;94228.94;5116612;28;20198;-78
2021/10/01 09:25:17;;;;;;;2.30;0.70;;;;;;;14.39;94.07;94211.28;5116052;28;20200;-76
2021/10/01 09:27:46;;;;;;;4.85;1.00;;;;;;;14.41;96.62;94218.97;5114239;28;20316;-76
2021/10/01 09:30:16;;;;;;;3.92;0.93;;;;;;;14.45;92.14;94217.50;5114788;28;20741;-76
2021/10/01 09:33:02;;;;;;;1.35;0.70;;;;;;;14.50;91.58;94206.34;5116397;28;20201;-76
2021/10/01 09:35:28;;;;;;;1.17;0.80;;;;;;;14.56;90.50;94208.94;5116457;28;20207;-76
2021/10/01 09:38:04;;;;;;;2.17;0.80;;;;;;;14.58;94.00;94203.47;5116174;28;20225;-76
2021/10/01 09:40:31;;;;;;;2.00;0.82;;;;;;;14.69;91.48;94197.56;5116505;28;20269;-76
2021/10/01 09:42:57;;;;;;;1.48;0.95;;;;;;;14.67;94.81;94194.34;5116362;28;20246;-76
2021/10/01 09:45:27;;;;;;;2.20;1.00;;;;;;;14.73;97.47;94188.19;5116538;28;20225;-76
2021/10/01 09:47:54;;;;;;;2.42;0.60;;;;;;;14.86;94.26;94184.66;5116322;28;20594;-77
2021/10/01 09:50:23;;;;;;;7.28;0.80;;;;;;;14.97;91.11;94189.22;5116276;28;20205;-76
2021/10/01 09:52:51;;;;;;;3.20;0.88;;;;;;;15.13;94.06;94187.81;5116261;28;20205;-76
2021/10/01 09:55:21;;;;;;;0.85;0.73;;;;;;;15.36;90.29;94187.16;5116055;28;20652;-77
2021/10/01 09:58:03;;;;;;;1.60;0.70;;;;;;;15.31;88.31;94179.13;5119526;27;20631;-76
2021/10/01 10:00:40;;;;;;;2.75;0.98;;;;;;;15.34;88.12;94177.91;5136837;27;20203;-75
2021/10/01 10:03:08;;;;;;;3.55;1.25;;;;;;;15.41;88.42;94173.38;5136570;27;20207;-77
2021/10/01 10:05:57;;;;;;;4.70;0.98;;;;;;;15.44;86.80;94178.19;5136741;27;20212;-76
2021/10/01 10:08:25;;;;;;;3.45;1.00;;;;;;;15.58;78.91;94170.94;5136759;27;20197;-76
2021/10/01 10:10:54;;;;;;;2.35;0.95;;;;;;;15.64;92.41;94162.16;5136519;27;20204;-76
2021/10/01 10:13:39;;;;;;;4.43;1.20;;;;;;;15.72;84.88;94168.94;5136483;27;20283;-76
2021/10/01 10:16:08;;;;;;;1.55;0.80;;;;;;;15.87;79.55;94166.75;5136209;27;20241;-77
2021/10/01 10:18:35;;;;;;;7.05;1.10;;;;;;;15.90;80.60;94173.38;5136170;27;20232;-76
2021/10/01 10:21:02;;;;;;;3.08;0.90;;;;;;;15.94;80.18;94163.19;5136181;27;20200;-76
2021/10/01 10:23:29;;;;;;;5.85;1.00;;;;;;;15.98;84.42;94156.47;5136151;27;20199;-77
2021/10/01 10:25:55;;;;;;;1.58;0.77;;;;;;;15.95;81.19;94160.34;5135710;27;20197;-76
2021/10/01 10:28:22;;;;;;;2.83;0.80;;;;;;;16.16;78.41;94159.03;5135928;27;20235;-76
2021/10/01 10:30:48;;;;;;;1.20;0.90;;;;;;;16.21;83.78;94159.16;5135966;27;20250;-76
2021/10/01 10:33:37;;;;;;;4.80;1.13;;;;;;;16.41;79.60;94155.44;5136082;27;20197;-77
2021/10/01 10:36:29;;;;;;;1.45;0.80;;;;;;;16.38;77.66;94156.69;5136061;27;20201;-76
2021/10/01 10:38:57;;;;;;;5.97;0.98;;;;;;;16.46;77.50;94152.91;5135666;27;20583;-77
2021/10/01 10:41:24;;;;;;;4.43;1.13;;;;;;;16.57;76.49;94152.13;5135660;27;20208;-76
2021/10/01 10:43:51;;;;;;;2.65;1.30;;;;;;;16.57;73.91;94151.31;5135958;27;20562;-76
2021/10/01 10:46:40;;;;;;;3.70;1.00;;;;;;;16.74;76.79;94143.56;5135742;27;20219;-77
2021/10/01 10:49:26;;;;;;;2.22;1.10;;;;;;;16.77;77.39;94153.63;5135696;27;20208;-77
2021/10/01 10:52:06;;;;;;;2.80;1.20;;;;;;;16.90;75.49;94148.13;5135579;27;20196;-77
2021/10/01 10:54:38;;;;;;;5.10;1.10;;;;;;;17.06;74.08;94145.84;5135533;27;20211;-76
2021/10/01 10:57:30;;;;;;;1.92;1.08;;;;;;;17.13;72.64;94142.03;5134999;27;20287;-77
2021/10/01 11:00:03;;;;;;;2.50;1.13;;;;;;;17.24;72.34;94150.19;5113675;28;20262;-76
2021/10/01 11:02:33;;;;;;;2.75;1.15;;;;;;;17.22;72.63;94145.16;5115276;28;20205;-77
2021/10/01 11:05:21;;;;;;;2.33;1.20;;;;;;;17.27;73.12;94141.78;5114880;28;20202;-76
2021/10/01 11:07:56;;;;;;;2.42;1.17;;;;;;;17.09;71.06;94140.91;5114348;28;20251;-76
2021/10/01 11:10:38;;;;;;;3.05;1.13;;;;;;;17.20;77.07;94129.53;5114931;28;20235;-77
2021/10/01 11:13:27;;;;;;;3.10;1.40;;;;;;;17.38;68.43;94136.47;5114614;28;20205;-75
2021/10/01 11:16:17;;;;;;;2.85;1.60;;;;;;;17.43;65.66;94124.44;5114629;28;20201;-76
2021/10/01 11:19:05;;;;;;;3.63;1.25;;;;;;;17.30;65.12;94123.66;5114167;28;20286;-76
2021/10/01 11:21:36;;;;;;;2.97;1.25;;;;;;;17.35;68.10;94126.41;5114559;28;20233;-76
2021/10/01 11:24:06;;;;;;;2.20;1.17;;;;;;;17.64;77.28;94118.50;5114693;28;20208;-76
2021/10/01 11:26:35;;;;;;;4.20;1.60;;;;;;;17.84;66.03;94115.44;5114185;28;20240;-76
2021/10/01 11:29:03;;;;;;;3.25;1.60;;;;;;;17.72;70.40;94112.84;5114425;28;20202;-77
2021/10/01 11:31:43;;;;;;;3.65;1.35;;;;;;;17.79;69.43;94104.00;5114195;28;20675;-75
2021/10/01 11:34:09;;;;;;;4.47;1.92;;;;;;;17.97;65.42;94093.25;5114237;28;20649;-75
2021/10/01 11:36:39;;;;;;;6.00;1.92;;;;;;;18.02;68.19;94090.69;5113562;28;20298;-77
2021/10/01 11:39:08;;;;;;;3.13;1.90;;;;;;;18.25;64.27;94087.09;5112645;28;20225;-77
2021/10/01 11:41:39;;;;;;;2.33;1.60;;;;;;;18.31;67.19;94078.19;5114186;28;20201;-76
2021/10/01 11:44:08;;;;;;;8.88;1.92;;;;;;;18.22;64.51;94084.94;5113701;28;20678;-74
2021/10/01 11:46:38;;;;;;;3.10;1.90;;;;;;;18.34;65.62;94076.91;5113845;28;20643;-75
2021/10/01 11:49:14;;;;;;;5.15;2.50;;;;;;;18.31;65.93;94080.03;5114179;28;20682;-75
2021/10/01 11:51:42;;;;;;;3.55;2.20;;;;;;;18.37;70.28;94071.16;5113547;28;20656;-75
2021/10/01 11:54:11;;;;;;;4.65;2.40;;;;;;;18.60;68.01;94064.88;5113661;28;20224;-75
2021/10/01 11:56:38;;;;;;;3.25;2.08;;;;;;;18.86;69.48;94058.09;5113616;27;20219;-76
2021/10/01 11:59:04;;;;;;;6.50;2.30;;;;;;;19.02;72.77;94051.16;5116172;27;20224;-76
2021/10/01 12:01:31;;;;;;;4.85;2.60;;;;;;;19.10;65.79;94054.41;5113552;28;20208;-77
2021/10/01 12:03:59;;;;;;;5.60;2.58;;;;;;;19.19;71.11;94056.41;5113557;28;20193;-77
2021/10/01 12:06:30;;;;;;;4.40;2.38;;;;;;;19.13;67.71;94046.78;5113318;28;20201;-78
2021/10/01 12:09:00;;;;;;;4.32;2.40;;;;;;;19.37;68.81;94051.84;5113401;28;20209;-77
2021/10/01 12:11:29;;;;;;;5.55;2.10;;;;;;;19.07;65.11;94047.78;5113140;28;20207;-76
2021/10/01 12:14:07;;;;;;;3.28;2.13;;;;;;;19.10;67.63;94042.00;5113339;28;20193;-76
2021/10/01 12:16:35;;;;;;;3.30;2.33;;;;;;;18.83;68.49;94037.41;5112175;28;20196;-76
2021/10/01 12:19:05;;;;;;;4.35;2.58;;;;;;;18.94;66.51;94038.38;5112074;28;20462;-76
2021/10/01 12:21:35;;;;;;;5.88;2.80;;;;;;;19.03;67.82;94030.78;5113221;28;20204;-76
2021/10/01 12:24:09;;;;;;;5.47;2.53;;;;;;;19.28;73.75;94032.94;5113633;28;20197;-77
2021/10/01 12:26:37;;;;;;;4.13;2.33;;;;;;;19.38;67.90;94032.25;5113272;28;20320;-76
2021/10/01 12:29:07;;;;;;;4.28;2.40;;;;;;;19.70;70.40;94023.53;5113576;28;20609;-77
2021/10/01 12:31:43;;;;;;;5.13;2.72;;;;;;;19.53;72.00;94029.75;5113380;28;20576;-76
2021/10/01 12:34:16;;;;;;;4.68;2.63;;;;;;;19.35;63.43;94032.72;5113331;28;20207;-77
2021/10/01 12:36:45;;;;;;;9.07;2.80;;;;;;;19.39;65.47;94031.19;5113072;28;20284;-77
2021/10/01 12:39:13;;;;;;;3.88;2.35;;;;;;;19.63;67.32;94034.34;5112566;28;20226;-79
2021/10/01 12:41:39;;;;;;;6.95;2.80;;;;;;;19.58;73.05;94027.16;5113353;28;20197;-78
2021/10/01 12:44:10;;;;;;;3.63;2.40;;;;;;;19.73;69.13;94023.88;5113230;28;20193;-79
2021/10/01 12:46:40;;;;;;;5.38;2.42;;;;;;;19.82;67.26;94028.72;5113323;28;20204;-77
2021/10/01 12:49:28;;;;;;;4.03;2.85;;;;;;;19.82;65.40;94021.59;5116086;28;20201;-77
2021/10/01 12:52:08;;;;;;;7.68;2.42;;;;;;;19.91;62.66;94029.88;5112322;28;20197;-78
2021/10/01 12:54:38;;;;;;;5.38;2.30;;;;;;;20.09;70.52;94023.38;5116277;28;20189;-78
2021/10/01 12:57:08;;;;;;;4.85;2.28;;;;;;;20.19;68.97;94020.03;5115530;28;20189;-79
2021/10/01 12:59:39;;;;;;;5.30;2.45;;;;;;;20.37;67.54;94026.75;5117055;27;20225;-79
2021/10/01 13:02:08;;;;;;;8.45;2.78;;;;;;;20.03;65.53;94011.13;5117372;28;20257;-77
2021/10/01 13:04:47;;;;;;;5.65;2.53;;;;;;;19.80;64.87;94007.78;5117178;28;20603;-78
2021/10/01 13:07:25;;;;;;;3.95;2.45;;;;;;;19.78;66.86;94007.22;5116942;28;20640;-78
2021/10/01 13:09:56;;;;;;;4.03;2.20;;;;;;;20.03;69.39;94003.19;5117266;28;20208;-79
2021/10/01 13:12:38;;;;;;;5.20;2.45;;;;;;;20.11;64.78;94002.72;5117152;28;20204;-79
2021/10/01 13:15:22;;;;;;;7.45;2.40;;;;;;;20.13;62.79;94003.25;5117108;28;20204;-79
2021/10/01 13:18:31;;;;;;;12.02;3.28;;;;;;;20.24;65.64;93990.88;5116782;28;20299;-79
2021/10/01 13:21:09;;;;;;;5.00;2.40;;;;;;;20.43;66.54;93988.59;5079421;28;20526;-79